Time;durP1;ratioP1;P1;durP2;ratioP2;P2;SDS_P1;SDS_P2;PMS_P1;PMS_P2;Temp;Humidity;BMP_temperature;BMP_pressure;BME280_temperature;BME280_humidity;BME280_pressure;Samples;Min_cycle;Max_cycle;Signal;HPM_P1;HPM_P2
2024/04/12 00:01:41;;;;;;;1.23;0.90;;;22.50;62.10;;;;;;5369309;26;84659;-61
2024/04/12 00:04:08;;;;;;;1.10;0.90;;;22.60;62.10;;;;;;5338455;26;84899;-61
2024/04/12 00:06:37;;;;;;;1.63;1.17;;;22.50;61.60;;;;;;5368767;26;86401;-62
2024/04/12 00:09:09;;;;;;;2.83;1.10;;;22.50;62.00;;;;;;5370613;26;85802;-61
2024/04/12 00:11:38;;;;;;;1.98;0.90;;;22.50;61.80;;;;;;5368611;26;84503;-62
2024/04/12 00:14:05;;;;;;;1.13;0.93;;;22.50;61.90;;;;;;5369050;26;84691;-62
2024/04/12 00:16:31;;;;;;;1.65;1.23;;;22.50;61.60;;;;;;5369931;26;87643;-62
2024/04/12 00:19:12;;;;;;;1.90;1.05;;;22.40;61.80;;;;;;5370533;26;84944;-61
2024/04/12 00:21:41;;;;;;;1.58;1.17;;;22.50;61.70;;;;;;5369727;26;84875;-62
2024/04/12 00:24:11;;;;;;;2.42;1.00;;;22.50;61.50;;;;;;5369109;26;84302;-61
2024/04/12 00:26:48;;;;;;;1.00;0.90;;;22.50;61.70;;;;;;5368205;26;85643;-62
2024/04/12 00:32:13;;;;;;;1.02;0.90;;;22.50;61.50;;;;;;5354790;26;86140;-62
2024/04/12 00:34:47;;;;;;;1.73;1.15;;;22.50;62.30;;;;;;5366132;26;84869;-62
2024/04/12 00:37:15;;;;;;;1.38;1.25;;;22.40;61.40;;;;;;5401279;26;86141;-61
2024/04/12 00:39:47;;;;;;;1.83;1.30;;;22.50;61.60;;;;;;5403046;26;85496;-61
2024/04/12 00:42:15;;;;;;;1.83;1.10;;;22.50;61.20;;;;;;5372553;26;85110;-62
2024/04/12 00:44:42;;;;;;;1.33;1.00;;;22.60;61.00;;;;;;5341945;26;84222;-62
2024/04/12 00:47:15;;;;;;;1.52;1.13;;;22.50;61.00;;;;;;5337802;26;86275;-61
2024/04/12 00:49:51;;;;;;;1.83;1.33;;;22.50;61.10;;;;;;5369046;26;84964;-62
2024/04/12 00:52:28;;;;;;;1.77;1.10;;;22.60;60.70;;;;;;5336530;26;85043;-61
2024/04/12 00:55:08;;;;;;;2.03;1.13;;;22.50;61.10;;;;;;5337496;26;84699;-62
2024/04/12 00:57:36;;;;;;;2.65;1.30;;;22.50;60.90;;;;;;5337377;26;86887;-61
2024/04/12 01:00:08;;;;;;;1.38;0.98;;;22.50;60.90;;;;;;5336731;26;85412;-61
2024/04/12 01:02:42;;;;;;;1.77;0.93;;;22.50;60.80;;;;;;5337404;26;84771;-63
2024/04/12 01:05:11;;;;;;;1.55;0.90;;;22.50;61.00;;;;;;5368514;26;84600;-62
2024/04/12 01:07:48;;;;;;;;;;;22.40;61.00;;;;;;5403043;26;85666;-61
2024/04/12 01:10:24;;;;;;;3.47;1.42;;;22.40;60.90;;;;;;5403558;26;84878;-62
2024/04/12 01:12:55;;;;;;;1.23;0.98;;;22.40;60.80;;;;;;5371559;26;85390;-63
2024/04/12 01:15:25;;;;;;;1.02;0.93;;;22.40;61.00;;;;;;5403077;26;84409;-62
2024/04/12 01:17:56;;;;;;;1.73;1.23;;;22.50;60.70;;;;;;5370516;26;85234;-62
2024/04/12 01:20:22;;;;;;;1.20;1.05;;;22.40;60.60;;;;;;5400638;26;85918;-62
2024/04/12 01:22:49;;;;;;;1.75;1.15;;;22.40;60.70;;;;;;5368655;26;85237;-62
2024/04/12 01:25:15;;;;;;;1.13;1.00;;;22.40;60.70;;;;;;5365607;26;84793;-62
2024/04/12 01:27:44;;;;;;;1.80;1.00;;;22.40;60.90;;;;;;5398761;26;85719;-61
2024/04/12 01:30:11;;;;;;;1.08;0.98;;;22.40;60.90;;;;;;5378033;25;85619;-62
2024/04/12 01:32:37;;;;;;;2.30;1.00;;;22.40;61.10;;;;;;5400242;26;84420;-62
2024/04/12 01:35:03;;;;;;;1.83;0.82;;;22.50;60.70;;;;;;5367754;26;85056;-62
2024/04/12 01:37:30;;;;;;;1.30;0.90;;;22.50;60.60;;;;;;5367710;26;87241;-62
2024/04/12 01:40:01;;;;;;;0.85;0.85;;;22.40;60.50;;;;;;5370213;26;85040;-61
2024/04/12 01:42:28;;;;;;;1.65;1.10;;;22.40;60.40;;;;;;5401518;26;84651;-62
2024/04/12 01:47:38;;;;;;;1.52;1.10;;;22.50;60.30;;;;;;5399330;26;84718;-61
2024/04/12 01:50:06;;;;;;;1.23;1.05;;;22.50;60.30;;;;;;5339522;26;85447;-62
2024/04/12 01:52:49;;;;;;;1.40;1.05;;;22.40;60.20;;;;;;5399942;26;84996;-62
2024/04/12 01:55:18;;;;;;;0.98;0.90;;;22.40;60.30;;;;;;5400176;26;84925;-63
2024/04/12 01:57:51;;;;;;;1.42;0.90;;;22.40;60.20;;;;;;5368886;26;86288;-62
2024/04/12 02:00:20;;;;;;;2.10;0.93;;;22.40;60.40;;;;;;5399296;26;85012;-62
2024/04/12 02:02:53;;;;;;;1.20;1.00;;;22.40;60.20;;;;;;5397687;26;84770;-61
2024/04/12 02:05:35;;;;;;;1.42;0.70;;;22.40;60.30;;;;;;5361341;26;84606;-61
2024/04/12 02:08:08;;;;;;;2.55;1.20;;;22.40;60.30;;;;;;5401400;26;85543;-62
2024/04/12 02:10:41;;;;;;;1.33;1.00;;;22.40;60.20;;;;;;5370151;26;85975;-61
2024/04/12 02:13:10;;;;;;;1.40;1.05;;;22.40;59.90;;;;;;5370841;26;84967;-62
2024/04/12 02:15:36;;;;;;;1.77;0.90;;;22.40;60.20;;;;;;5401476;26;84571;-61
2024/04/12 02:18:02;;;;;;;1.10;1.05;;;22.40;60.40;;;;;;5370736;26;85174;-62
2024/04/12 02:20:36;;;;;;;2.20;1.13;;;22.40;60.00;;;;;;5401904;26;85046;-61
2024/04/12 02:23:06;;;;;;;2.00;1.15;;;22.30;60.30;;;;;;5401873;26;84996;-62
2024/04/12 02:25:37;;;;;;;1.95;1.10;;;22.40;60.00;;;;;;5370449;25;85102;-63
2024/04/12 02:28:08;;;;;;;1.00;0.90;;;22.40;59.90;;;;;;5399712;25;85185;-61
2024/04/12 02:30:44;;;;;;;0.80;0.80;;;22.40;59.80;;;;;;5378974;26;85003;-61
2024/04/12 02:33:17;;;;;;;1.80;1.25;;;22.40;59.60;;;;;;5339194;26;85242;-62
2024/04/12 02:35:44;;;;;;;1.35;1.02;;;22.40;59.90;;;;;;5367199;26;85652;-62
2024/04/12 02:38:21;;;;;;;1.10;0.80;;;22.40;60.50;;;;;;5366724;26;86240;-62
2024/04/12 02:40:48;;;;;;;2.08;1.15;;;22.40;59.80;;;;;;5367126;26;85245;-62
2024/04/12 02:43:15;;;;;;;0.93;0.88;;;22.40;59.90;;;;;;5368807;26;84398;-63
2024/04/12 02:45:50;;;;;;;1.52;1.13;;;22.30;59.90;;;;;;5368873;26;84762;-63
2024/04/12 02:48:17;;;;;;;1.02;0.90;;;22.40;59.80;;;;;;5368314;26;85980;-62
2024/04/12 02:50:44;;;;;;;0.93;0.85;;;22.40;59.60;;;;;;5337097;26;87053;-61
2024/04/12 02:53:17;;;;;;;1.90;0.80;;;22.40;59.80;;;;;;5337372;26;84872;-63
2024/04/12 02:55:44;;;;;;;1.00;0.90;;;22.40;59.70;;;;;;5336488;26;84586;-62
2024/04/12 02:58:10;;;;;;;1.67;1.10;;;22.30;59.90;;;;;;5368177;26;85043;-62
2024/04/12 03:00:37;;;;;;;2.13;1.20;;;22.30;59.90;;;;;;5359493;26;85963;-62
2024/04/12 03:03:06;;;;;;;1.13;1.02;;;22.30;59.60;;;;;;5400989;26;84711;-62
2024/04/12 03:05:33;;;;;;;;;;;22.40;59.80;;;;;;5369522;26;84754;-61
2024/04/12 03:08:00;;;;;;;1.23;0.90;;;22.40;59.60;;;;;;5370304;26;86435;-62
2024/04/12 03:10:32;;;;;;;1.48;0.95;;;22.30;59.70;;;;;;5403188;26;84816;-62
2024/04/12 03:12:59;;;;;;;2.03;0.95;;;22.40;60.40;;;;;;5401808;26;84812;-61
2024/04/12 03:15:27;;;;;;;1.40;1.02;;;22.40;59.50;;;;;;5369313;26;85107;-61
2024/04/12 03:17:52;;;;;;;1.45;0.70;;;22.40;59.60;;;;;;5400799;26;86016;-61
2024/04/12 03:20:19;;;;;;;0.75;0.70;;;22.30;59.80;;;;;;5401010;25;85829;-62
2024/04/12 03:22:45;;;;;;;1.38;0.80;;;22.40;59.50;;;;;;5379157;25;85030;-62
2024/04/12 03:25:12;;;;;;;0.77;0.70;;;22.40;59.70;;;;;;5403901;26;85188;-61
2024/04/12 03:27:39;;;;;;;1.10;0.80;;;22.30;59.60;;;;;;5402185;26;84718;-61
2024/04/12 03:30:14;;;;;;;1.00;0.90;;;22.30;59.60;;;;;;5370572;26;85753;-62
2024/04/12 03:32:46;;;;;;;1.48;0.93;;;22.40;59.70;;;;;;5401974;26;84911;-62
2024/04/12 03:35:20;;;;;;;1.52;0.90;;;22.40;59.40;;;;;;5403232;26;84788;-62
2024/04/12 03:38:36;;;;;;;1.20;1.00;;;22.40;59.40;;;;;;5403037;26;85271;-61
2024/04/12 03:40:32;;;;;;;1.13;1.02;;;22.30;59.60;;;;;;5381678;26;85069;-61
2024/04/12 03:43:02;;;;;;;0.80;0.80;;;22.30;59.20;;;;;;5401448;26;84495;-61
2024/04/12 03:45:31;;;;;;;1.23;1.00;;;22.30;59.30;;;;;;5370490;26;84877;-62
2024/04/12 03:48:04;;;;;;;1.40;1.15;;;22.30;59.40;;;;;;5400233;26;86640;-61
2024/04/12 03:50:30;;;;;;;1.08;0.98;;;22.20;59.60;;;;;;5402029;26;86035;-61
2024/04/12 03:53:15;;;;;;;2.17;1.20;;;22.20;59.80;;;;;;5341607;26;85410;-61
2024/04/12 03:55:45;;;;;;;1.52;1.00;;;22.30;59.60;;;;;;5368912;26;84979;-62
2024/04/12 03:58:17;;;;;;;1.02;0.93;;;22.20;59.50;;;;;;5367451;26;85980;-62
2024/04/12 04:00:47;;;;;;;2.58;1.20;;;22.30;59.50;;;;;;5336031;26;85792;-61
2024/04/12 04:03:35;;;;;;;0.93;0.88;;;22.30;59.50;;;;;;5367833;26;85081;-61
2024/04/12 04:06:11;;;;;;;1.08;0.98;;;22.20;59.60;;;;;;5366480;26;84641;-62
2024/04/12 04:09:05;;;;;;;1.30;1.08;;;22.20;59.60;;;;;;5370430;26;86277;-62
2024/04/12 04:11:25;;;;;;;2.03;1.20;;;22.30;59.50;;;;;;5365031;26;84821;-62
2024/04/12 04:13:53;;;;;;;0.85;0.80;;;22.30;59.60;;;;;;5335167;26;85487;-63
2024/04/12 04:16:22;;;;;;;2.58;1.33;;;22.20;59.50;;;;;;5365878;25;84747;-62
2024/04/12 04:18:49;;;;;;;1.15;1.05;;;22.20;59.60;;;;;;5378761;25;87894;-63
2024/04/12 04:21:24;;;;;;;2.15;1.30;;;22.20;59.70;;;;;;5368160;26;85702;-62
2024/04/12 04:23:50;;;;;;;1.27;0.68;;;22.20;59.50;;;;;;5401256;26;84847;-62
2024/04/12 04:26:17;;;;;;;0.90;0.90;;;22.20;59.60;;;;;;5368375;26;85354;-62
2024/04/12 04:28:43;;;;;;;1.17;1.05;;;22.20;59.60;;;;;;5364267;26;87046;-62
2024/04/12 04:31:09;;;;;;;1.00;0.90;;;22.20;59.40;;;;;;5366529;26;86310;-64
2024/04/12 04:33:38;;;;;;;1.00;0.82;;;22.20;59.20;;;;;;5366065;26;84516;-62
2024/04/12 04:36:11;;;;;;;1.40;0.90;;;22.20;59.30;;;;;;5399444;26;84781;-62
2024/04/12 04:38:38;;;;;;;0.73;0.73;;;22.20;59.40;;;;;;5399007;26;85590;-62
2024/04/12 04:41:06;;;;;;;1.08;0.80;;;22.20;59.40;;;;;;5367603;26;86212;-62
2024/04/12 04:43:36;;;;;;;1.45;1.00;;;22.10;59.40;;;;;;5367736;26;84494;-63
2024/04/12 04:48:52;;;;;;;0.98;0.90;;;22.20;59.60;;;;;;5367352;26;84722;-63
2024/04/12 04:51:18;;;;;;;0.80;0.80;;;22.20;59.50;;;;;;5367702;26;85660;-63
2024/04/12 04:53:44;;;;;;;2.03;1.00;;;22.20;59.40;;;;;;5340761;26;84917;-63
2024/04/12 04:56:12;;;;;;;1.85;1.15;;;22.20;59.30;;;;;;5402215;26;84311;-62
2024/04/12 04:58:41;;;;;;;1.63;0.90;;;22.20;59.40;;;;;;5369443;26;86497;-62
2024/04/12 05:01:13;;;;;;;1.20;1.10;;;22.30;59.10;;;;;;5369198;26;84932;-63
2024/04/12 05:03:39;;;;;;;1.20;0.95;;;22.50;58.80;;;;;;5370725;26;85226;-62
2024/04/12 05:06:08;;;;;;;1.77;1.20;;;22.50;58.50;;;;;;5402611;26;85243;-62
2024/04/12 05:08:35;;;;;;;1.27;1.02;;;22.70;58.10;;;;;;5369323;26;86143;-63
2024/04/12 05:11:05;;;;;;;1.45;1.10;;;22.80;57.60;;;;;;5370442;26;85711;-62
2024/04/12 05:13:38;;;;;;;1.88;1.25;;;23.00;56.90;;;;;;5368531;26;84573;-62
2024/04/12 05:16:10;;;;;;;1.17;1.00;;;23.10;56.50;;;;;;5354257;26;84786;-62
2024/04/12 05:18:39;;;;;;;1.73;1.02;;;23.10;56.40;;;;;;5401693;26;85722;-62
2024/04/12 05:21:05;;;;;;;1.10;0.90;;;23.10;56.10;;;;;;5400235;26;86012;-62
2024/04/12 05:23:31;;;;;;;1.27;1.08;;;23.10;56.10;;;;;;5367554;26;85038;-63
2024/04/12 05:25:59;;;;;;;1.08;0.90;;;23.20;56.20;;;;;;5367346;26;84747;-62
2024/04/12 05:28:27;;;;;;;1.33;1.00;;;23.20;56.10;;;;;;5367542;26;85965;-62
2024/04/12 05:30:54;;;;;;;1.38;1.10;;;23.20;56.20;;;;;;5369821;26;85596;-61
2024/04/12 05:33:22;;;;;;;1.38;0.93;;;23.20;56.30;;;;;;5353100;26;84881;-62
2024/04/12 05:35:49;;;;;;;1.38;0.80;;;23.20;56.30;;;;;;5342712;26;85231;-62
2024/04/12 05:38:20;;;;;;;1.85;1.30;;;23.20;56.60;;;;;;5364126;26;85219;-63
2024/04/12 05:40:52;;;;;;;3.08;1.15;;;23.20;56.80;;;;;;5335500;26;85055;-62
2024/04/12 05:43:25;;;;;;;2.63;1.42;;;23.30;56.80;;;;;;5364936;26;85232;-62
2024/04/12 05:45:51;;;;;;;4.25;1.85;;;23.40;56.90;;;;;;5363871;26;85015;-62
2024/04/12 05:48:18;;;;;;;5.18;2.47;;;23.50;56.90;;;;;;5332850;26;86785;-63
2024/04/12 05:50:48;;;;;;;5.00;1.83;;;23.50;57.00;;;;;;5334003;26;85823;-62
2024/04/12 05:53:14;;;;;;;7.57;2.22;;;23.60;57.00;;;;;;5334175;26;84835;-61
2024/04/12 05:55:44;;;;;;;4.00;2.15;;;23.50;57.20;;;;;;5326816;26;85307;-62
2024/04/12 05:58:24;;;;;;;9.32;3.25;;;23.50;57.50;;;;;;5336064;26;86193;-61
2024/04/12 06:00:50;;;;;;;7.47;3.17;;;23.50;58.00;;;;;;5336399;26;86472;-62
2024/04/12 06:03:16;;;;;;;14.13;2.45;;;23.60;58.70;;;;;;5368969;26;84800;-61
2024/04/12 06:05:56;;;;;;;8.07;2.88;;;23.60;58.80;;;;;;5336398;26;84966;-61
2024/04/12 06:08:23;;;;;;;14.80;2.75;;;23.70;58.70;;;;;;5367545;26;85456;-61
2024/04/12 06:10:50;;;;;;;8.57;3.05;;;23.70;58.80;;;;;;5334466;26;84921;-63
2024/04/12 06:13:20;;;;;;;9.13;2.75;;;23.70;59.10;;;;;;5367874;25;84940;-62
2024/04/12 06:15:48;;;;;;;6.15;2.60;;;23.80;58.80;;;;;;5336600;26;85042;-62
2024/04/12 06:18:16;;;;;;;6.18;2.33;;;23.80;58.80;;;;;;5367061;26;85708;-61
2024/04/12 06:20:43;;;;;;;7.75;3.38;;;23.80;58.80;;;;;;5367703;26;86118;-64
2024/04/12 06:23:11;;;;;;;13.02;2.95;;;23.80;59.10;;;;;;5368100;26;85505;-63
2024/04/12 06:25:44;;;;;;;7.22;2.33;;;23.80;59.40;;;;;;5400970;26;85097;-64
2024/04/12 06:28:12;;;;;;;6.50;2.50;;;23.80;59.50;;;;;;5370317;26;89423;-63
2024/04/12 06:30:51;;;;;;;5.05;2.38;;;23.90;59.40;;;;;;5372230;26;86237;-64
2024/04/12 06:33:22;;;;;;;6.30;2.22;;;23.90;59.30;;;;;;5403024;26;84926;-63
2024/04/12 06:36:04;;;;;;;5.05;2.85;;;23.90;59.00;;;;;;5401030;26;84563;-64
2024/04/12 06:38:34;;;;;;;14.02;4.82;;;24.00;59.00;;;;;;5401434;26;86095;-66
2024/04/12 06:41:02;;;;;;;20.67;6.82;;;24.00;58.40;;;;;;5366329;26;86107;-68
2024/04/12 06:43:28;;;;;;;29.95;10.07;;;24.00;58.80;;;;;;5356324;26;85118;-67
2024/04/12 06:46:11;;;;;;;47.28;15.88;;;24.00;59.20;;;;;;5336526;26;84820;-73
2024/04/12 06:48:41;;;;;;;55.35;18.58;;;24.10;59.40;;;;;;5365459;26;86253;-69
2024/04/12 06:51:11;;;;;;;57.50;18.63;;;24.10;59.60;;;;;;5337814;26;85753;-67
2024/04/12 06:53:44;;;;;;;54.83;18.65;;;24.10;59.90;;;;;;5357291;26;85064;-64
2024/04/12 06:56:15;;;;;;;48.70;18.33;;;24.10;60.20;;;;;;5367326;26;86157;-62
2024/04/12 06:58:48;;;;;;;47.15;18.88;;;24.10;60.20;;;;;;5355051;26;87252;-61
2024/04/12 07:01:15;;;;;;;44.55;17.08;;;24.00;60.30;;;;;;5339037;26;88559;-67
2024/04/12 07:03:45;;;;;;;46.58;15.90;;;24.10;60.70;;;;;;5347997;26;86825;-58
2024/04/12 07:06:16;;;;;;;43.65;15.77;;;24.00;61.10;;;;;;5341441;26;87198;-58
2024/04/12 07:08:49;;;;;;;47.58;16.73;;;24.00;61.70;;;;;;5344165;26;86501;-64
2024/04/12 07:11:21;;;;;;;50.17;17.08;;;24.00;61.70;;;;;;5338215;26;87298;-63
2024/04/12 07:13:50;;;;;;;38.38;15.05;;;24.00;62.20;;;;;;5339169;26;87775;-56
2024/04/12 07:16:20;;;;;;;35.88;14.43;;;24.00;62.20;;;;;;5343804;26;86174;-58
2024/04/12 07:18:50;;;;;;;41.03;15.15;;;24.00;62.80;;;;;;5367013;26;94653;-59
2024/04/12 07:21:16;;;;;;;47.08;15.75;;;24.00;62.70;;;;;;5365440;26;87048;-59
2024/04/12 07:23:51;;;;;;;47.88;15.90;;;24.00;62.70;;;;;;5364088;26;86470;-60
2024/04/12 07:26:27;;;;;;;27.88;11.40;;;24.00;62.10;;;;;;5395643;26;86453;-57
2024/04/12 07:29:06;;;;;;;33.58;11.98;;;24.10;61.10;;;;;;5365578;26;86809;-58
2024/04/12 07:31:38;;;;;;;26.43;10.80;;;24.10;60.70;;;;;;5398643;26;87601;-57
2024/04/12 07:34:07;;;;;;;27.73;10.93;;;24.00;60.20;;;;;;5376032;26;88436;-61
2024/04/12 07:36:34;;;;;;;;;;;24.00;60.40;;;;;;5374222;26;85562;-61
2024/04/12 07:39:15;;;;;;;28.65;11.73;;;24.00;61.80;;;;;;5343016;26;87050;-61
2024/04/12 07:41:45;;;;;;;26.58;11.02;;;24.10;61.90;;;;;;5344496;26;86973;-64
2024/04/12 07:44:14;;;;;;;29.83;10.52;;;24.10;62.50;;;;;;5345368;26;87181;-63
2024/04/12 07:46:50;;;;;;;25.40;9.40;;;24.10;62.90;;;;;;5342068;26;85846;-64
2024/04/12 07:49:16;;;;;;;32.88;10.98;;;24.10;63.10;;;;;;5333751;26;85797;-64
2024/04/12 07:51:45;;;;;;;24.83;10.90;;;24.10;63.50;;;;;;5344761;26;89343;-62
2024/04/12 07:54:12;;;;;;;23.65;8.63;;;24.10;63.90;;;;;;5379843;26;86738;-64
2024/04/12 07:56:56;;;;;;;26.25;11.23;;;24.10;63.30;;;;;;5336005;26;87519;-65
2024/04/12 07:59:25;;;;;;;20.50;9.25;;;24.10;63.70;;;;;;5352802;26;86584;-57
2024/04/12 08:01:57;;;;;;;29.77;11.70;;;24.10;63.90;;;;;;5347688;26;87668;-61
2024/04/12 08:04:23;;;;;;;28.45;10.88;;;24.10;64.90;;;;;;5373910;26;86153;-60
2024/04/12 08:06:56;;;;;;;31.10;11.15;;;24.10;65.50;;;;;;5376657;26;85987;-62
2024/04/12 08:09:34;;;;;;;25.77;9.95;;;24.10;65.40;;;;;;5344613;26;85891;-65
2024/04/12 08:12:14;;;;;;;32.53;10.80;;;24.20;64.30;;;;;;5368874;26;91865;-64
2024/04/12 08:14:52;;;;;;;29.30;10.13;;;24.10;65.30;;;;;;5369735;26;86684;-60
2024/04/12 08:17:26;;;;;;;33.63;11.43;;;24.20;65.40;;;;;;5341737;26;86362;-61
2024/04/12 08:19:57;;;;;;;31.80;10.10;;;24.10;66.10;;;;;;5371693;26;86525;-60
2024/04/12 08:22:26;;;;;;;24.77;9.13;;;24.20;66.80;;;;;;5335805;26;87747;-62
2024/04/12 08:24:56;;;;;;;31.15;10.23;;;24.20;67.00;;;;;;5333885;26;86756;-62
2024/04/12 08:27:25;;;;;;;;;;;24.20;67.60;;;;;;5331163;26;86098;-61
2024/04/12 08:29:52;;;;;;;20.88;9.40;;;24.20;67.80;;;;;;5361943;26;85918;-61
2024/04/12 08:32:27;;;;;;;28.63;10.27;;;24.20;67.90;;;;;;5333104;26;86553;-61
2024/04/12 08:34:59;;;;;;;34.10;10.88;;;24.20;68.30;;;;;;5362257;26;86895;-60
2024/04/12 08:37:36;;;;;;;20.77;6.78;;;24.10;68.60;;;;;;5371800;26;86151;-61
2024/04/12 08:40:08;;;;;;;18.60;6.85;;;24.10;67.00;;;;;;5398157;26;86461;-61
2024/04/12 08:42:36;;;;;;;22.33;8.45;;;24.10;65.00;;;;;;5360223;26;89525;-69
2024/04/12 08:45:13;;;;;;;28.70;8.20;;;24.20;66.50;;;;;;5356036;26;87184;-68
2024/04/12 08:47:54;;;;;;;20.83;7.75;;;24.20;66.90;;;;;;5330732;26;87176;-70
2024/04/12 08:50:24;;;;;;;29.33;10.13;;;24.10;67.50;;;;;;5325473;26;87381;-61
2024/04/12 08:52:54;;;;;;;23.38;8.05;;;24.20;67.80;;;;;;5330218;26;88115;-68
2024/04/12 08:55:28;;;;;;;20.23;7.63;;;24.20;67.30;;;;;;5371462;26;87434;-59
2024/04/12 08:57:57;;;;;;;20.95;7.82;;;24.10;68.10;;;;;;5334205;26;88471;-59
2024/04/12 09:00:34;;;;;;;21.02;8.73;;;24.10;69.00;;;;;;5331286;26;85992;-60
2024/04/12 09:03:02;;;;;;;21.48;8.35;;;24.00;67.80;;;;;;4380684;26;10000975;-61
2024/04/12 09:05:40;;;;;;;20.98;8.40;;;24.10;67.30;;;;;;5396920;26;85716;-60
2024/04/12 09:08:06;;;;;;;20.60;7.28;;;24.20;67.10;;;;;;5381854;26;86921;-59
2024/04/12 09:10:36;;;;;;;21.33;7.60;;;24.20;66.80;;;;;;5326137;26;87872;-62
2024/04/12 09:13:09;;;;;;;20.10;7.43;;;24.20;66.30;;;;;;5338569;26;86911;-61
2024/04/12 09:15:43;;;;;;;23.33;7.20;;;24.30;63.70;;;;;;5324647;26;88215;-61
2024/04/12 09:18:15;;;;;;;18.67;7.05;;;24.30;62.40;;;;;;5367261;26;86791;-61
2024/04/12 09:20:52;;;;;;;19.65;6.90;;;24.30;62.50;;;;;;5372402;26;87098;-67
2024/04/12 09:23:32;;;;;;;27.75;7.80;;;24.30;62.50;;;;;;5323465;26;86055;-64
2024/04/12 09:26:00;;;;;;;21.42;7.70;;;24.20;61.60;;;;;;5334689;26;86022;-69
2024/04/12 09:28:30;;;;;;;20.17;7.80;;;24.20;62.50;;;;;;5339651;26;86830;-69
2024/04/12 09:33:51;;;;;;;17.33;6.50;;;24.20;61.90;;;;;;5372247;26;86156;-71
2024/04/12 09:36:50;;;;;;;23.90;8.45;;;24.20;61.80;;;;;;5364280;26;87597;-74
2024/04/12 09:39:16;;;;;;;17.95;6.07;;;24.20;61.80;;;;;;5363392;26;92301;-72
2024/04/12 09:41:53;;;;;;;18.33;6.75;;;24.20;61.90;;;;;;5354278;26;88286;-69
2024/04/12 09:44:27;;;;;;;20.52;7.00;;;24.20;62.10;;;;;;5363105;26;85980;-71
2024/04/12 10:37:36;;;;;;;21.88;5.97;;;24.30;65.00;;;;;;5363206;26;87253;-68
2024/04/12 10:40:09;;;;;;;13.63;5.45;;;24.30;64.50;;;;;;5401909;26;85924;-67
2024/04/12 10:42:36;;;;;;;12.10;5.22;;;24.30;63.70;;;;;;5402599;26;85780;-69
2024/04/12 10:45:07;;;;;;;11.60;4.57;;;24.30;63.30;;;;;;5403102;26;87164;-70
2024/04/12 10:47:37;;;;;;;10.90;4.07;;;24.30;63.00;;;;;;5403500;26;87088;-68
2024/04/12 10:50:04;;;;;;;15.27;5.25;;;24.30;62.90;;;;;;5401934;26;85976;-68
2024/04/12 10:52:30;;;;;;;11.65;4.32;;;24.30;62.70;;;;;;5369192;26;87496;-66
2024/04/12 10:54:57;;;;;;;13.35;4.50;;;24.30;62.40;;;;;;5377301;25;87375;-68
2024/04/12 10:57:23;;;;;;;17.98;5.13;;;24.30;62.10;;;;;;5386013;26;86534;-69
2024/04/12 10:59:51;;;;;;;17.55;4.88;;;24.30;62.30;;;;;;5336156;26;89347;-67
2024/04/12 11:02:18;;;;;;;12.57;4.28;;;24.30;62.00;;;;;;5364646;26;85835;-68
2024/04/12 11:07:29;;;;;;;11.90;3.88;;;24.30;61.70;;;;;;5378757;26;86648;-67
2024/04/12 11:09:57;;;;;;;17.00;4.07;;;24.30;61.40;;;;;;5376477;26;86054;-69
2024/04/12 11:12:50;;;;;;;11.15;3.83;;;24.20;61.00;;;;;;5377926;26;86495;-71
2024/04/12 11:31:57;;;;;;;12.88;4.53;;;24.10;64.20;;;;;;5381366;26;86021;-68
2024/04/12 11:34:24;;;;;;;20.08;4.78;;;24.10;64.30;;;;;;5343361;26;86939;-71
2024/04/12 11:36:53;;;;;;;13.70;4.13;;;24.10;64.50;;;;;;5326288;26;87516;-78
2024/04/12 11:39:25;;;;;;;12.38;4.10;;;24.10;65.30;;;;;;5365803;26;87578;-71
2024/04/12 11:41:55;;;;;;;9.82;3.83;;;24.10;65.10;;;;;;5377994;26;86254;-79
2024/04/12 11:44:24;;;;;;;13.35;4.05;;;24.20;65.40;;;;;;5379743;26;86296;-69
2024/04/12 11:46:54;;;;;;;14.57;4.15;;;24.30;65.90;;;;;;5344123;26;86441;-65
2024/04/12 11:49:30;;;;;;;6.07;3.40;;;24.30;66.10;;;;;;5334054;26;87538;-66
2024/04/12 11:52:15;;;;;;;10.57;3.33;;;24.30;66.10;;;;;;5381723;26;86767;-67
2024/04/12 11:54:42;;;;;;;10.55;3.92;;;24.30;65.70;;;;;;5338881;26;87014;-69
2024/04/12 11:57:11;;;;;;;13.27;2.70;;;24.30;65.80;;;;;;5371371;26;86827;-69
2024/04/12 11:59:37;;;;;;;11.38;3.55;;;24.40;65.70;;;;;;5343770;26;87219;-71
2024/04/12 12:02:06;;;;;;;8.43;4.03;;;24.30;66.10;;;;;;5381473;25;86125;-69
2024/04/12 12:04:32;;;;;;;8.37;2.70;;;24.40;66.30;;;;;;5378960;26;85855;-72
2024/04/12 12:07:02;;;;;;;10.15;3.42;;;24.40;66.10;;;;;;5375158;26;86678;-69
2024/04/12 12:09:35;;;;;;;11.32;4.28;;;24.40;66.00;;;;;;5346483;26;87424;-73
2024/04/12 12:12:00;;;;;;;5.68;3.08;;;24.40;66.20;;;;;;5339576;26;86287;-67
2024/04/12 12:14:27;;;;;;;10.18;3.00;;;24.50;67.00;;;;;;5341412;26;86627;-71
2024/04/12 12:16:59;;;;;;;6.40;3.03;;;24.50;66.10;;;;;;5344306;26;88212;-65
2024/04/12 12:19:25;;;;;;;9.68;3.10;;;24.50;66.20;;;;;;5362293;26;85844;-67
2024/04/12 12:21:51;;;;;;;8.13;3.85;;;24.50;66.60;;;;;;5364008;26;85619;-64
2024/04/12 12:24:17;;;;;;;11.13;3.38;;;24.50;66.60;;;;;;5345650;26;86645;-65
2024/04/12 12:26:44;;;;;;;7.47;2.90;;;24.50;66.80;;;;;;5395480;26;85753;-65
2024/04/12 12:29:13;;;;;;;10.23;3.33;;;24.50;66.10;;;;;;5400887;26;86569;-66
2024/04/12 12:31:38;;;;;;;9.60;3.43;;;24.50;65.60;;;;;;5397178;26;86580;-68
2024/04/12 12:34:05;;;;;;;7.30;3.05;;;24.50;65.20;;;;;;5364040;26;85674;-70
2024/04/12 12:36:31;;;;;;;8.68;3.28;;;24.60;65.00;;;;;;5391531;26;87110;-72
2024/04/12 12:38:58;;;;;;;9.77;2.90;;;24.60;64.90;;;;;;5375923;26;86563;-74
2024/04/12 12:41:25;;;;;;;7.18;3.05;;;24.60;65.10;;;;;;5363615;26;87525;-72
2024/04/12 12:43:52;;;;;;;6.68;2.42;;;24.60;64.70;;;;;;5349794;26;86315;-68
2024/04/12 12:46:21;;;;;;;7.32;3.22;;;24.60;64.50;;;;;;5366268;26;85777;-69
2024/04/12 12:48:48;;;;;;;5.93;2.72;;;24.60;64.40;;;;;;5364434;26;86663;-69
2024/04/12 12:51:15;;;;;;;6.30;2.58;;;24.60;64.30;;;;;;5379614;26;85853;-71
2024/04/12 12:53:44;;;;;;;6.28;2.70;;;24.60;64.70;;;;;;5342285;26;86029;-65
2024/04/12 12:56:13;;;;;;;5.80;2.50;;;24.50;65.10;;;;;;5345237;26;87353;-68
2024/04/12 12:58:38;;;;;;;6.38;2.30;;;24.60;65.40;;;;;;5379877;25;87645;-66
2024/04/12 13:01:07;;;;;;;7.90;3.10;;;24.50;65.40;;;;;;5380131;26;86083;-65
2024/04/12 13:03:36;;;;;;;7.28;3.08;;;24.50;65.40;;;;;;5381835;26;86179;-70
2024/04/12 13:06:07;;;;;;;16.55;4.03;;;24.60;65.40;;;;;;5384901;26;88300;-66
2024/04/12 13:08:37;;;;;;;6.70;3.08;;;24.50;65.40;;;;;;5345446;26;88747;-71
2024/04/12 13:11:08;;;;;;;12.95;3.80;;;24.60;65.30;;;;;;5366181;26;86281;-68
2024/04/12 13:13:40;;;;;;;9.68;3.00;;;24.60;65.40;;;;;;5361855;26;87130;-77
2024/04/12 13:16:15;;;;;;;6.15;2.63;;;24.60;65.60;;;;;;5378770;26;86495;-69
2024/04/12 13:18:52;;;;;;;5.85;2.67;;;24.60;65.90;;;;;;5379423;26;87157;-69
2024/04/12 13:21:18;;;;;;;4.03;2.70;;;24.60;66.20;;;;;;5382875;26;86277;-71
2024/04/12 13:23:48;;;;;;;10.70;2.75;;;24.60;67.10;;;;;;5378546;26;85168;-70
2024/04/12 13:26:23;;;;;;;9.38;2.90;;;24.70;66.30;;;;;;5379244;26;86566;-68
2024/04/12 13:28:52;;;;;;;8.38;2.80;;;24.60;66.50;;;;;;5378963;26;86026;-72
2024/04/12 13:31:23;;;;;;;9.20;3.10;;;24.60;66.70;;;;;;5334788;26;87306;-65
2024/04/12 13:33:50;;;;;;;7.72;3.78;;;24.60;67.00;;;;;;5334858;26;85709;-73
2024/04/12 13:36:19;;;;;;;5.75;2.58;;;24.60;67.10;;;;;;5367276;26;87074;-69
2024/04/12 13:38:45;;;;;;;;;;;24.60;67.30;;;;;;5399057;26;87137;-72
2024/04/12 13:41:11;;;;;;;8.98;2.53;;;24.60;67.40;;;;;;5401275;26;85815;-70
2024/04/12 13:43:39;;;;;;;7.15;2.33;;;24.50;67.90;;;;;;5364053;26;86711;-69
2024/04/12 13:51:34;;;;;;;11.57;3.35;;;24.50;68.10;;;;;;5366231;26;85772;-72
2024/04/12 13:53:59;;;;;;;11.02;3.13;;;24.60;68.40;;;;;;5377869;25;86060;-73
2024/04/12 13:56:26;;;;;;;11.45;3.85;;;24.60;68.60;;;;;;5362567;26;87652;-77
2024/04/12 13:58:53;;;;;;;8.05;2.95;;;24.50;68.20;;;;;;5364597;26;87450;-74
2024/04/12 14:01:29;;;;;;;10.13;2.95;;;24.50;68.70;;;;;;5365848;26;86215;-68
2024/04/12 14:04:04;;;;;;;6.95;2.95;;;24.50;68.40;;;;;;5375864;26;86410;-75
2024/04/12 14:06:34;;;;;;;7.70;2.50;;;24.50;68.80;;;;;;5350824;25;86626;-76
2024/04/12 14:09:01;;;;;;;11.32;3.38;;;24.60;68.20;;;;;;5383164;26;92740;-72
2024/04/12 14:11:28;;;;;;;5.97;2.63;;;24.50;67.40;;;;;;5381408;26;85973;-77
2024/04/12 14:13:54;;;;;;;6.88;2.85;;;24.50;67.70;;;;;;5356670;26;87137;-70
2024/04/12 14:16:28;;;;;;;8.48;3.40;;;24.50;68.00;;;;;;5366760;26;86684;-76
2024/04/12 14:18:55;;;;;;;5.90;2.50;;;24.50;69.10;;;;;;5360275;26;88234;-69
2024/04/12 14:21:22;;;;;;;10.57;3.30;;;24.50;68.80;;;;;;5362802;26;87705;-76
2024/04/12 14:23:47;;;;;;;6.70;2.42;;;24.40;70.00;;;;;;5371649;26;86939;-73
2024/04/12 14:26:14;;;;;;;6.63;2.72;;;24.50;66.60;;;;;;5339886;26;88091;-74